Tri Cities Regional Tn Va Airport Bristol,Johnson,Kingsport US
ICAO: KTRI
IATA: TRI
Category: Large
Scheduled Services: Yes

Elevation: 1519 ft
TransAlt. 18000 ft.

Airport Communications:
APP:119.25
ATIS:118.25
CTAF:119.5
DEP:125.5
GND:121.7
NASHVILLE RDO:122.2
TWR:119.5
UNICOM:122.95

KTRI Zoom In..

If you have problems with the map follow the link
https://www.worldairports.se/pages/airport.php?
ICAO=KTRI

Runways:

(A) RW 05 length 8000 ft width 150 ft
ILS 111.50 / hdg 48

(B) RW 09 length 4442 ft width 150 ft
---- / hdg 94

(C) RW 23 length 8000 ft width 150 ft
ILS 109.90 / hdg 228

(D) RW 27 length 4442 ft width 150 ft
---- / hdg 274

Location; KTRI
Day. 14 / Time. 20.53 Zulu
* Altimeter: 30.03
* Temperature: 09° c. 48.2°f.
* Wind from: KTR° Speed I kn.
Dewpoint: 07° c.
Visibility: 10 Statute Miles.
Clouds: Scattered 4700 ft.
Clouds: Scattered 6000 ft.
Clouds: Overcast 8500 ft.

KTRI 142053Z 06006KT 10SM SCT047 SCT060 OVC085 09/07 A3003 RMK AO2 SLP162 60005 T00890067 56010


Wind From KTR°
Speed I kn.

 
 
jpsmedia.com for Web Design worldairports.se 2018   terms of use